Bana 03 aktiv

Väderdata
Vind 57° / 4kt
(medelvind 10min 3kt)

Lokalt QNH: 1031.1
Temperatur 0.6°C
Daggpunkt -0.3°C
Relativ luftfuktighet 94%

Nuvarande regnaktivitet 0.0mm/h
Regn totalt idag: 1.4mm.

Bana 03
Sidvindskomposant: 2kt från höger
Motvindskomposant: 4kt.

Data inläst 2018-12-14T23:22:25+01:00

Statistik för väderstationen
Väderstation Höllviken

ESMS 142150Z 06005KT 8000 OVC008 01/00 Q1030 R17/29//95
EKCH 142150Z 08009KT 9999 FEW008 SCT012 BKN054 02/01 Q1031 TEMPO BKN012